createdAt,value
2018-08-19T12:11:29.874Z,25.80
2018-08-19T12:13:58.653Z,26.30
2018-08-19T12:16:28.175Z,26.30
2018-08-19T12:19:04.413Z,26.80
2018-08-19T12:21:35.454Z,27.00
2018-08-19T12:24:16.790Z,27.10
2018-08-19T12:26:45.369Z,27.40
2018-08-19T12:29:14.004Z,27.40
2018-08-19T12:31:43.479Z,27.40
2018-08-19T12:34:12.449Z,27.20
2018-08-19T12:36:41.025Z,27.40
2018-08-19T12:39:10.356Z,27.70
2018-08-19T12:41:42.020Z,27.90
2018-08-19T12:44:10.732Z,27.90
2018-08-19T12:46:39.833Z,27.90
2018-08-19T12:49:08.467Z,27.80
2018-08-19T12:51:37.126Z,27.80
2018-08-19T12:54:05.767Z,27.50
2018-08-19T12:56:34.381Z,27.40
2018-08-19T12:59:02.976Z,27.30
2018-08-19T13:01:31.604Z,27.30
2018-08-19T13:04:00.249Z,27.20
2018-08-19T13:06:28.870Z,27.20
2018-08-19T13:08:57.477Z,27.30
2018-08-19T13:11:26.322Z,27.60
2018-08-19T13:13:55.708Z,27.70
2018-08-19T13:16:24.321Z,27.50
2018-08-19T13:18:52.950Z,27.50
2018-08-19T13:21:21.641Z,27.50
2018-08-19T13:23:50.304Z,27.70
2018-08-19T13:26:19.277Z,27.60
2018-08-19T13:28:54.888Z,27.80
2018-08-19T13:31:27.865Z,27.70
2018-08-19T13:33:56.460Z,27.40
2018-08-19T13:36:25.038Z,27.70
2018-08-19T13:38:53.669Z,27.70
2018-08-19T13:41:22.279Z,27.80
2018-08-19T13:43:50.953Z,28.00
2018-08-19T13:46:19.540Z,27.70
2018-08-19T13:48:48.192Z,27.80
2018-08-19T13:51:16.837Z,27.90
2018-08-19T13:53:45.481Z,28.10
2018-08-19T13:56:15.785Z,28.20
2018-08-19T13:58:44.484Z,27.90
2018-08-19T14:01:14.652Z,27.90
2018-08-19T14:03:43.334Z,28.20
2018-08-19T14:06:11.965Z,28.40
2018-08-19T14:08:40.649Z,28.50
2018-08-19T14:11:09.285Z,28.50
2018-08-19T14:14:55.777Z,28.30
2018-08-19T14:17:24.385Z,28.60
2018-08-19T14:19:53.073Z,28.50
2018-08-19T14:22:21.688Z,28.20
2018-08-19T14:24:50.296Z,28.20
2018-08-19T14:27:18.919Z,28.50
2018-08-19T14:52:28.073Z,27.60
2018-08-19T14:54:56.691Z,28.20
2018-08-19T14:57:25.510Z,28.40
2018-08-19T14:59:54.223Z,28.70
2018-08-19T15:02:22.804Z,28.40
2018-08-19T15:04:51.421Z,28.30
2018-08-19T15:07:20.007Z,28.40
2018-08-19T15:09:50.336Z,28.50
2018-08-19T15:12:19.982Z,28.50
2018-08-19T15:14:49.028Z,28.40
2018-08-19T15:17:17.696Z,27.90
2018-08-19T15:19:49.531Z,28.20
2018-08-19T15:22:18.242Z,28.30
2018-08-19T15:24:46.911Z,28.40
2018-08-19T15:27:15.569Z,28.60
2018-08-19T15:29:46.949Z,28.60
2018-08-19T15:32:15.870Z,28.60
2018-08-19T15:34:44.634Z,28.50
2018-08-19T15:37:13.295Z,28.60
2018-08-19T15:39:41.921Z,28.60
2018-08-19T15:42:10.550Z,28.40
2018-08-19T15:44:39.192Z,28.40
2018-08-19T15:47:07.853Z,28.00
2018-08-19T15:49:36.434Z,28.30
2018-08-19T15:52:05.149Z,28.30
2018-08-19T15:54:33.717Z,28.30
2018-08-19T15:57:03.713Z,28.20
2018-08-19T15:59:36.915Z,28.10
2018-08-19T16:02:05.692Z,27.70
2018-08-19T16:04:34.347Z,27.90
2018-08-19T16:07:02.992Z,28.00
2018-08-19T16:09:31.730Z,28.10
2018-08-19T16:12:00.417Z,28.30
2018-08-19T16:14:30.189Z,27.90
2018-08-19T16:17:00.212Z,27.60
2018-08-19T16:19:28.773Z,27.80
2018-08-19T16:21:58.397Z,27.70
2018-08-19T16:24:27.343Z,27.50
2018-08-19T16:26:56.035Z,27.60
2018-08-19T16:29:24.645Z,27.70
2018-08-19T16:31:53.372Z,27.80
2018-08-19T16:34:21.886Z,27.90
2018-08-19T16:36:50.776Z,27.70
2018-08-19T16:39:19.505Z,27.80
2018-08-19T16:41:48.180Z,27.90
2018-08-19T16:44:16.793Z,27.60
2018-08-19T16:46:45.404Z,27.60
2018-08-19T16:49:14.001Z,27.60
2018-08-19T16:51:52.087Z,27.60
2018-08-19T16:54:20.718Z,27.30
2018-08-19T16:56:49.490Z,27.30
2018-08-19T16:59:18.120Z,27.50
2018-08-19T17:01:46.774Z,27.80
2018-08-19T17:04:15.373Z,27.90
2018-08-19T17:06:44.006Z,28.30
2018-08-19T17:09:12.576Z,28.30
2018-08-19T17:11:41.212Z,28.70
2018-08-19T17:14:09.817Z,29.40
2018-08-19T17:16:38.495Z,29.10
2018-08-19T17:19:07.772Z,29.20
2018-08-19T17:21:36.405Z,28.90
2018-08-19T17:24:05.080Z,28.40
2018-08-19T17:26:33.795Z,28.40
2018-08-19T17:29:07.705Z,28.20
2018-08-19T17:31:36.354Z,28.30
2018-08-19T17:34:09.182Z,27.80
2018-08-19T17:36:37.817Z,27.60
2018-08-19T17:39:08.925Z,27.10
2018-08-19T17:41:37.449Z,27.00
2018-08-19T17:44:06.094Z,26.90
2018-08-19T17:46:34.684Z,26.30
2018-08-19T17:49:03.457Z,25.90
2018-08-19T17:51:34.719Z,25.50
2018-08-19T17:54:04.055Z,25.30
2018-08-19T17:56:32.653Z,25.00
2018-08-19T17:59:03.944Z,24.90
2018-08-19T18:01:32.938Z,24.70
2018-08-19T18:04:01.484Z,24.60
2018-08-19T18:06:30.131Z,24.50
2018-08-19T18:08:58.813Z,24.40
2018-08-19T18:11:27.606Z,24.30
2018-08-19T18:13:56.303Z,24.20
2018-08-19T18:16:25.683Z,24.00
2018-08-19T18:18:54.456Z,24.00
2018-08-19T18:21:23.060Z,23.90
2018-08-19T18:23:51.726Z,23.80
2018-08-19T18:26:20.578Z,23.80
2018-08-19T18:28:49.257Z,23.70
2018-08-19T18:31:21.240Z,23.60
2018-08-19T18:33:55.313Z,23.50
2018-08-19T18:36:25.073Z,23.40
2018-08-19T18:38:53.752Z,23.30
2018-08-19T18:41:27.969Z,23.10
2018-08-19T18:43:59.827Z,23.00
2018-08-19T18:46:28.654Z,22.80
2018-08-19T18:49:13.685Z,22.80
2018-08-19T18:51:46.541Z,22.80
2018-08-19T18:54:36.906Z,22.70
2018-08-19T18:57:08.190Z,22.50
2018-08-19T18:59:43.939Z,22.50
2018-08-19T19:02:12.876Z,22.50
2018-08-19T19:04:41.474Z,22.50
2018-08-19T19:07:10.189Z,22.30
2018-08-19T19:09:50.592Z,22.30
2018-08-19T19:12:21.858Z,22.20
2018-08-19T19:14:50.507Z,22.10
2018-08-19T19:17:19.731Z,22.10
2018-08-19T19:19:50.358Z,22.00
2018-08-19T19:22:18.943Z,21.90
2018-08-19T19:24:47.689Z,21.80
2018-08-19T19:27:16.358Z,21.70
2018-08-19T19:29:49.844Z,21.60
2018-08-19T19:32:23.033Z,21.70
2018-08-19T19:34:51.710Z,21.50
2018-08-19T19:37:20.460Z,21.60
2018-08-19T19:39:54.089Z,21.70
2018-08-19T19:42:22.688Z,21.60
2018-08-19T19:44:51.342Z,21.50
2018-08-19T19:47:20.142Z,21.50
2018-08-19T19:49:54.032Z,21.60
2018-08-19T19:52:22.889Z,21.50
2018-08-19T19:54:51.545Z,21.50
2018-08-19T19:57:20.245Z,21.40
2018-08-19T19:59:48.839Z,21.40
2018-08-19T20:02:22.785Z,21.20
2018-08-19T20:04:51.507Z,21.10
2018-08-19T20:07:20.093Z,21.00
2018-08-19T20:09:48.718Z,21.00
2018-08-19T20:12:31.946Z,21.00
2018-08-19T20:15:00.823Z,21.00
2018-08-19T20:17:29.618Z,21.00
2018-08-19T20:19:58.299Z,21.00
2018-08-19T20:22:26.969Z,20.90
2018-08-19T20:24:55.626Z,20.90
2018-08-19T20:27:24.326Z,20.90
2018-08-19T20:29:54.082Z,20.90
2018-08-19T20:32:22.883Z,20.80
2018-08-19T20:34:51.617Z,20.80
2018-08-19T20:37:22.713Z,20.70
2018-08-19T20:39:51.500Z,20.80
2018-08-19T20:42:20.483Z,20.80
2018-08-19T20:44:49.177Z,20.90
2018-08-19T20:47:17.781Z,20.60
2018-08-19T20:49:48.625Z,20.70
2018-08-19T20:52:17.295Z,20.50
2018-08-19T20:54:45.911Z,20.50
2018-08-19T20:57:14.576Z,20.50
2018-08-19T20:59:43.217Z,20.50
2018-08-19T21:02:11.848Z,20.40
2018-08-19T21:04:40.493Z,20.40
2018-08-19T21:07:09.120Z,20.50
2018-08-19T21:09:37.826Z,20.50
2018-08-19T21:12:06.433Z,20.60
2018-08-19T21:14:35.185Z,20.50
2018-08-19T21:17:05.469Z,20.40
2018-08-19T21:19:34.745Z,20.30
2018-08-19T21:22:03.372Z,20.20
2018-08-19T21:24:31.985Z,20.20
2018-08-19T21:27:01.427Z,20.10
2018-08-19T21:29:30.562Z,20.00
2018-08-19T21:31:59.253Z,20.00
2018-08-19T21:34:28.361Z,20.00
2018-08-19T21:36:57.313Z,20.00
2018-08-19T21:39:25.924Z,20.00
2018-08-19T21:41:55.524Z,19.90
2018-08-19T21:44:25.093Z,19.80
2018-08-19T21:46:53.727Z,19.80
2018-08-19T21:49:22.354Z,19.70
2018-08-19T21:51:51.004Z,19.80
2018-08-19T21:54:19.679Z,19.80
2018-08-19T21:56:48.326Z,19.80
2018-08-19T21:59:23.764Z,19.80
2018-08-19T22:02:00.178Z,19.80
2018-08-19T22:04:29.452Z,20.00
2018-08-19T22:06:58.192Z,19.90
2018-08-19T22:09:37.004Z,19.80
2018-08-19T22:12:07.209Z,19.60
2018-08-19T22:14:35.821Z,19.60
2018-08-19T22:17:09.896Z,19.40
2018-08-19T22:19:39.254Z,19.30
2018-08-19T22:22:08.424Z,19.10
2018-08-19T22:24:37.255Z,19.10
2018-08-19T22:27:11.588Z,19.00
2018-08-19T22:29:40.373Z,18.80
2018-08-19T22:32:08.978Z,18.70
2018-08-19T22:34:37.669Z,18.60
2018-08-19T22:37:06.787Z,18.50
2018-08-19T22:39:35.441Z,18.40
2018-08-19T22:42:04.202Z,18.70
2018-08-19T22:44:32.801Z,18.70
2018-08-19T22:47:01.442Z,18.60
2018-08-19T22:49:30.036Z,18.60
2018-08-19T22:52:24.991Z,18.50
2018-08-19T22:54:56.756Z,18.50
2018-08-19T22:57:26.023Z,18.50
2018-08-19T22:59:54.677Z,18.50
2018-08-19T23:02:23.584Z,18.40
2018-08-19T23:04:52.239Z,18.20
2018-08-19T23:07:20.842Z,18.10
2018-08-19T23:09:49.442Z,17.90
2018-08-19T23:12:18.024Z,17.80
2018-08-19T23:14:57.879Z,17.70
2018-08-19T23:17:26.480Z,17.60
2018-08-19T23:19:55.108Z,17.60
2018-08-19T23:22:23.697Z,17.80
2018-08-19T23:24:52.321Z,17.80
2018-08-19T23:27:20.929Z,17.70
2018-08-19T23:29:49.597Z,17.60
2018-08-19T23:32:18.232Z,17.60
2018-08-19T23:34:46.881Z,17.70
2018-08-19T23:37:15.489Z,17.60
2018-08-19T23:39:44.104Z,17.50
2018-08-19T23:42:12.741Z,17.50
2018-08-19T23:44:41.323Z,17.40
2018-08-19T23:47:10.009Z,17.50
2018-08-19T23:49:38.592Z,17.80
2018-08-19T23:52:07.216Z,17.70
2018-08-19T23:54:35.798Z,17.60
2018-08-19T23:57:04.432Z,17.40
2018-08-19T23:59:35.731Z,17.30
